Time;durP1;ratioP1;P1;durP2;ratioP2;P2;SDS_P1;SDS_P2;PMS_P1;PMS_P2;Temp;Humidity;BMP_temperature;BMP_pressure;BME280_temperature;BME280_humidity;BME280_pressure;Samples;Min_cycle;Max_cycle;Signal;HPM_P1;HPM_P2
2023/04/23 00:04:51;;;;;;;16.80;13.90;;;15.60;69.60;;;;;;10283022;28;20097;-54
2023/04/23 00:09:56;;;;;;;17.63;13.88;;;15.60;69.70;;;;;;10290336;28;20031;-56
2023/04/23 00:14:57;;;;;;;17.85;13.82;;;15.60;69.70;;;;;;10291331;28;20029;-55
2023/04/23 00:19:58;;;;;;;18.40;15.02;;;15.60;69.60;;;;;;10290981;28;20546;-56
2023/04/23 00:24:59;;;;;;;18.17;14.98;;;15.60;69.50;;;;;;10289102;28;20117;-55
2023/04/23 00:29:59;;;;;;;21.15;14.48;;;15.60;69.60;;;;;;10272768;28;20549;-56
2023/04/23 00:35:00;;;;;;;18.60;14.68;;;15.50;69.70;;;;;;10290352;28;20058;-56
2023/04/23 00:40:01;;;;;;;16.17;13.65;;;15.50;69.60;;;;;;10290069;28;20030;-55
2023/04/23 00:45:02;;;;;;;19.63;14.52;;;15.50;69.70;;;;;;10289629;28;20034;-54
2023/04/23 00:50:03;;;;;;;20.27;16.10;;;15.60;69.70;;;;;;10289500;28;20382;-56
2023/04/23 00:55:04;;;;;;;21.67;16.73;;;15.50;69.50;;;;;;10288569;28;20022;-56
2023/04/23 01:00:06;;;;;;;20.08;14.80;;;15.50;69.40;;;;;;10289286;28;20085;-54
2023/04/23 01:05:09;;;;;;;19.08;14.48;;;15.50;69.40;;;;;;10272002;28;20043;-53
2023/04/23 01:10:11;;;;;;;22.85;16.52;;;15.50;69.40;;;;;;10271589;28;20058;-56
2023/04/23 01:15:11;;;;;;;20.83;15.35;;;15.50;69.30;;;;;;10289175;28;20110;-55
2023/04/23 01:20:12;;;;;;;19.17;15.40;;;15.50;69.30;;;;;;10288464;28;20015;-55
2023/04/23 01:25:13;;;;;;;18.05;14.35;;;15.50;69.40;;;;;;10288480;28;20037;-56
2023/04/23 01:30:14;;;;;;;20.17;15.48;;;15.50;69.40;;;;;;10287906;28;20041;-56
2023/04/23 01:35:15;;;;;;;22.35;16.63;;;15.50;69.40;;;;;;10270443;28;20026;-56
2023/04/23 01:40:15;;;;;;;18.20;14.50;;;15.50;69.30;;;;;;10288254;28;20019;-55
2023/04/23 01:45:18;;;;;;;21.60;15.45;;;15.40;69.30;;;;;;10270272;28;20047;-55
2023/04/23 01:50:22;;;;;;;17.63;13.18;;;15.50;69.30;;;;;;10287468;28;20453;-54
2023/04/23 01:55:22;;;;;;;22.52;15.63;;;15.40;69.20;;;;;;10287102;28;20602;-56
2023/04/23 02:00:23;;;;;;;19.63;16.15;;;15.40;69.20;;;;;;10269714;28;20105;-55
2023/04/23 02:05:27;;;;;;;20.25;16.25;;;15.40;69.20;;;;;;10285969;28;20054;-55
2023/04/23 02:10:29;;;;;;;21.80;16.15;;;15.40;69.10;;;;;;10268555;28;20031;-56
2023/04/23 02:15:31;;;;;;;20.85;16.00;;;15.40;68.90;;;;;;10285518;28;20046;-54
2023/04/23 02:20:32;;;;;;;21.50;16.55;;;15.40;68.80;;;;;;10285722;28;20050;-55
2023/04/23 02:25:33;;;;;;;20.55;17.02;;;15.40;68.80;;;;;;10285421;28;20019;-56
2023/04/23 02:30:34;;;;;;;19.67;15.55;;;15.40;68.70;;;;;;10284846;28;20122;-56
2023/04/23 02:35:35;;;;;;;21.30;15.95;;;15.40;68.60;;;;;;10285518;28;20022;-56
2023/04/23 02:40:35;;;;;;;20.38;15.77;;;15.40;68.60;;;;;;10285411;28;20033;-55
2023/04/23 02:45:36;;;;;;;20.63;15.07;;;15.40;68.60;;;;;;10283506;28;20129;-56
2023/04/23 02:50:40;;;;;;;22.67;17.13;;;15.40;68.60;;;;;;10285205;28;20110;-56
2023/04/23 02:55:41;;;;;;;19.67;16.65;;;15.30;68.50;;;;;;10284838;28;20434;-54
2023/04/23 03:00:41;;;;;;;23.02;17.27;;;15.40;68.60;;;;;;10285011;28;20051;-56
2023/04/23 03:05:42;;;;;;;21.45;16.10;;;15.40;68.60;;;;;;10284463;28;20423;-56
2023/04/23 03:10:43;;;;;;;19.42;15.85;;;15.40;68.60;;;;;;10282780;28;20035;-56
2023/04/23 03:15:43;;;;;;;20.50;15.68;;;15.30;68.60;;;;;;10284428;28;20026;-54
2023/04/23 03:20:44;;;;;;;18.25;14.77;;;15.30;68.50;;;;;;10284479;28;20377;-55
2023/04/23 03:25:44;;;;;;;20.98;16.95;;;15.30;68.50;;;;;;10266743;28;20105;-56
2023/04/23 03:30:45;;;;;;;20.02;14.98;;;15.30;68.60;;;;;;10283620;28;20026;-56
2023/04/23 03:35:46;;;;;;;24.27;17.40;;;15.30;68.50;;;;;;10283648;28;20498;-55
2023/04/23 03:40:47;;;;;;;19.88;15.65;;;15.30;68.50;;;;;;10283621;28;20106;-55
2023/04/23 03:45:47;;;;;;;21.83;16.30;;;15.30;68.50;;;;;;10265945;28;20051;-55
2023/04/23 03:50:48;;;;;;;20.92;16.33;;;15.30;68.60;;;;;;10265586;28;20097;-55
2023/04/23 03:55:49;;;;;;;18.13;12.70;;;15.30;68.50;;;;;;10266127;28;20390;-56
2023/04/23 04:00:49;;;;;;;19.17;16.20;;;15.30;69.30;;;;;;10283147;28;20402;-55
2023/04/23 04:05:50;;;;;;;17.00;14.73;;;15.40;69.20;;;;;;10283203;28;20037;-54
2023/04/23 04:10:51;;;;;;;21.42;15.52;;;15.60;68.40;;;;;;10283385;28;20066;-55
2023/04/23 04:15:51;;;;;;;21.08;15.15;;;15.70;68.10;;;;;;10282712;28;20053;-56
2023/04/23 04:20:52;;;;;;;19.10;14.27;;;15.90;67.80;;;;;;10278765;28;20422;-56
2023/04/23 04:25:55;;;;;;;19.35;13.30;;;16.10;67.10;;;;;;10281147;28;20606;-56
2023/04/23 04:30:56;;;;;;;17.98;13.45;;;16.10;67.10;;;;;;10282661;28;20027;-56
2023/04/23 04:35:58;;;;;;;17.10;12.68;;;16.10;67.00;;;;;;10282783;28;20030;-56
2023/04/23 04:41:01;;;;;;;15.20;11.63;;;16.20;67.00;;;;;;10265799;28;20023;-56
2023/04/23 04:46:01;;;;;;;18.27;14.07;;;16.10;67.80;;;;;;10280630;28;20050;-57
2023/04/23 04:51:02;;;;;;;23.13;13.38;;;16.20;68.00;;;;;;10281195;28;20114;-56
2023/04/23 04:56:03;;;;;;;21.95;13.73;;;16.20;68.80;;;;;;10287492;28;20149;-54
2023/04/23 05:01:04;;;;;;;22.90;15.70;;;16.30;69.10;;;;;;10265436;28;20038;-57
2023/04/23 05:06:05;;;;;;;23.55;13.18;;;16.30;69.20;;;;;;10289160;28;20038;-58
2023/04/23 05:11:06;;;;;;;20.42;13.20;;;16.40;69.10;;;;;;10270687;28;20682;-57
2023/04/23 05:16:07;;;;;;;19.98;12.75;;;16.30;69.10;;;;;;10271567;28;20110;-56
2023/04/23 05:21:08;;;;;;;26.55;12.52;;;16.30;70.00;;;;;;10271379;28;20025;-57
2023/04/23 05:26:09;;;;;;;32.20;13.88;;;16.30;70.20;;;;;;10288507;28;20509;-56
2023/04/23 05:31:10;;;;;;;26.90;13.77;;;16.30;70.40;;;;;;10288153;28;20085;-57
2023/04/23 05:36:11;;;;;;;24.38;13.77;;;16.30;70.40;;;;;;10287748;28;20097;-56
2023/04/23 05:41:12;;;;;;;30.45;12.50;;;16.20;70.40;;;;;;10271107;28;20362;-54
2023/04/23 05:46:13;;;;;;;24.27;13.68;;;16.10;71.00;;;;;;10268987;28;20133;-56
2023/04/23 05:51:13;;;;;;;23.17;12.68;;;16.20;70.80;;;;;;10286185;28;20034;-56
2023/04/23 05:56:14;;;;;;;23.92;12.63;;;16.00;70.80;;;;;;10285384;28;20039;-54
2023/04/23 06:01:15;;;;;;;31.15;13.90;;;16.00;71.00;;;;;;10284140;28;20114;-55
2023/04/23 06:06:15;;;;;;;27.58;12.50;;;15.90;71.20;;;;;;10283810;28;20478;-53
2023/04/23 06:11:16;;;;;;;19.83;12.10;;;15.90;71.10;;;;;;10281089;28;20034;-55
2023/04/23 06:16:18;;;;;;;22.42;13.02;;;15.90;70.90;;;;;;10282131;28;20027;-53
2023/04/23 06:21:19;;;;;;;21.45;12.43;;;15.80;70.80;;;;;;10281506;28;20026;-56
2023/04/23 06:26:20;;;;;;;17.27;12.23;;;15.80;70.80;;;;;;10284170;28;20034;-56
2023/04/23 06:31:21;;;;;;;15.85;10.55;;;15.80;70.80;;;;;;10283980;28;20039;-56
2023/04/23 06:36:21;;;;;;;20.95;12.57;;;15.80;70.80;;;;;;10283991;28;20473;-56
2023/04/23 06:41:22;;;;;;;15.77;9.73;;;15.70;70.80;;;;;;10282088;28;20109;-55
2023/04/23 06:46:22;;;;;;;17.65;9.38;;;15.70;70.80;;;;;;10265851;28;20126;-55
2023/04/23 06:51:26;;;;;;;17.23;11.32;;;15.70;70.70;;;;;;10266068;28;20491;-56
2023/04/23 06:56:27;;;;;;;17.05;10.13;;;15.70;70.70;;;;;;10266078;28;20349;-55
2023/04/23 07:01:27;;;;;;;15.98;10.57;;;15.70;70.70;;;;;;10282990;28;20027;-53
2023/04/23 07:06:28;;;;;;;15.45;9.85;;;15.70;70.70;;;;;;10283729;28;20093;-55
2023/04/23 07:11:30;;;;;;;16.27;10.57;;;15.70;70.70;;;;;;10282413;28;20117;-55
2023/04/23 07:16:32;;;;;;;13.00;9.07;;;15.70;70.70;;;;;;10264846;28;20050;-55
2023/04/23 07:21:33;;;;;;;18.05;10.27;;;15.60;70.60;;;;;;10282324;28;20105;-55
2023/04/23 07:26:34;;;;;;;14.00;9.05;;;15.60;70.60;;;;;;10264628;28;20026;-55
2023/04/23 07:31:36;;;;;;;10.25;7.57;;;15.70;70.70;;;;;;10281607;28;20031;-54
2023/04/23 07:36:37;;;;;;;11.98;9.07;;;15.60;70.60;;;;;;10281604;28;20026;-54
2023/04/23 07:41:37;;;;;;;14.73;9.65;;;15.60;70.50;;;;;;10282009;28;20038;-56
2023/04/23 07:46:38;;;;;;;15.02;9.65;;;15.60;70.30;;;;;;10281292;28;20053;-55
2023/04/23 07:51:39;;;;;;;11.10;8.38;;;15.70;70.40;;;;;;10281715;28;20054;-52
2023/04/23 07:56:39;;;;;;;10.55;7.63;;;15.70;70.50;;;;;;10281638;28;20022;-55
2023/04/23 08:01:40;;;;;;;11.65;8.55;;;15.70;70.50;;;;;;10281161;28;20557;-56
2023/04/23 08:06:41;;;;;;;11.60;8.75;;;15.80;70.40;;;;;;10280918;28;20023;-55
2023/04/23 08:11:43;;;;;;;9.18;7.38;;;15.70;70.30;;;;;;10280772;28;20039;-56
2023/04/23 08:16:44;;;;;;;9.55;6.35;;;15.80;70.30;;;;;;10280760;28;20027;-52
2023/04/23 08:21:44;;;;;;;9.23;7.70;;;15.80;70.30;;;;;;10281103;28;20415;-54
2023/04/23 08:26:45;;;;;;;10.07;8.27;;;15.80;70.30;;;;;;10264668;28;20086;-56
2023/04/23 08:31:46;;;;;;;10.30;7.05;;;15.80;70.30;;;;;;10289900;28;20116;-55
2023/04/23 08:36:48;;;;;;;8.23;7.20;;;15.80;70.40;;;;;;10287195;28;20410;-55
2023/04/23 08:41:54;;;;;;;7.40;6.07;;;15.90;70.40;;;;;;10287909;28;20161;-56
2023/04/23 08:46:57;;;;;;;13.35;6.38;;;15.90;70.40;;;;;;10287788;28;20104;-54
2023/04/23 08:52:30;;;;;;;8.00;6.55;;;15.90;70.30;;;;;;10270567;28;20097;-56
2023/04/23 08:57:31;;;;;;;8.27;6.50;;;15.90;70.40;;;;;;10285166;28;20035;-55
2023/04/23 09:02:37;;;;;;;8.30;6.15;;;15.90;70.30;;;;;;10270426;28;20030;-53
2023/04/23 09:07:38;;;;;;;8.25;6.20;;;15.90;70.90;;;;;;10269985;28;20053;-56
2023/04/23 09:12:41;;;;;;;8.23;5.72;;;16.00;70.40;;;;;;10287175;28;20046;-56
2023/04/23 09:17:46;;;;;;;8.60;5.65;;;16.00;70.40;;;;;;10286849;28;20031;-57
2023/04/23 09:22:49;;;;;;;8.50;5.88;;;16.00;70.40;;;;;;10270272;28;20110;-54
2023/04/23 09:27:51;;;;;;;10.07;5.88;;;16.00;70.20;;;;;;10287757;28;20046;-54
2023/04/23 09:32:52;;;;;;;7.22;5.07;;;16.00;70.10;;;;;;10285940;28;20101;-56
2023/04/23 09:37:53;;;;;;;9.23;5.75;;;16.00;70.10;;;;;;10286230;28;20027;-55
2023/04/23 09:42:54;;;;;;;7.03;4.97;;;16.00;70.20;;;;;;10285607;28;20106;-55
2023/04/23 09:47:58;;;;;;;7.25;5.78;;;16.10;70.10;;;;;;10285376;28;20121;-54
2023/04/23 09:52:59;;;;;;;6.63;4.47;;;16.10;70.10;;;;;;10268046;28;20247;-56
2023/04/23 09:58:04;;;;;;;6.13;4.07;;;16.10;70.10;;;;;;10285040;28;20025;-55
2023/04/23 10:03:07;;;;;;;6.95;4.50;;;16.10;70.10;;;;;;10268020;28;20086;-55
2023/04/23 10:08:08;;;;;;;7.95;4.95;;;16.10;70.00;;;;;;10284497;28;20023;-54
2023/04/23 10:13:09;;;;;;;5.30;3.80;;;16.20;70.00;;;;;;10284698;28;20510;-53
2023/04/23 10:18:10;;;;;;;28.90;5.15;;;16.20;69.90;;;;;;10286349;28;20023;-54
2023/04/23 10:23:11;;;;;;;23.60;4.90;;;16.20;70.00;;;;;;10268801;28;20389;-57
2023/04/23 10:28:15;;;;;;;23.65;6.03;;;16.30;70.50;;;;;;10285943;28;20038;-57
2023/04/23 10:33:17;;;;;;;18.02;4.60;;;16.30;70.50;;;;;;10269246;28;20031;-57
2023/04/23 10:38:18;;;;;;;13.45;5.07;;;16.40;69.60;;;;;;10268094;28;20050;-58
2023/04/23 10:43:19;;;;;;;17.85;4.60;;;16.40;69.70;;;;;;10282203;28;20115;-52
2023/04/23 10:48:20;;;;;;;14.43;4.43;;;16.50;69.60;;;;;;10265805;28;20066;-56
2023/04/23 10:53:21;;;;;;;14.85;4.50;;;16.60;70.70;;;;;;10282352;28;20783;-57
2023/04/23 10:58:23;;;;;;;19.25;5.45;;;16.80;68.50;;;;;;10265616;28;20092;-57
2023/04/23 11:03:40;;;;;;;20.27;4.85;;;16.60;70.00;;;;;;10282947;28;20021;-56
2023/04/23 11:08:55;;;;;;;21.10;4.65;;;16.50;70.50;;;;;;10264996;28;20043;-56
2023/04/23 11:13:56;;;;;;;17.63;4.85;;;16.70;69.50;;;;;;10265217;28;20368;-55
2023/04/23 11:19:10;;;;;;;10.75;3.75;;;16.80;69.30;;;;;;10243790;28;20042;-54
2023/04/23 11:24:10;;;;;;;21.67;4.47;;;16.70;69.50;;;;;;10281595;28;20015;-56
2023/04/23 11:29:14;;;;;;;25.42;5.82;;;16.50;70.60;;;;;;10281354;28;20118;-54
2023/04/23 11:34:16;;;;;;;24.55;5.80;;;16.50;70.70;;;;;;10281839;28;20014;-55
2023/04/23 11:39:18;;;;;;;24.48;5.47;;;16.50;70.80;;;;;;10281820;28;20026;-55
2023/04/23 11:44:22;;;;;;;39.25;6.57;;;16.50;70.10;;;;;;10281029;28;20458;-56
2023/04/23 11:49:23;;;;;;;34.50;6.03;;;16.50;70.00;;;;;;10237940;28;20051;-56
2023/04/23 11:54:27;;;;;;;30.33;6.03;;;16.50;70.40;;;;;;10259260;28;20055;-56
2023/04/23 11:59:28;;;;;;;29.95;5.82;;;16.50;70.50;;;;;;10282378;28;20022;-55
2023/04/23 12:04:30;;;;;;;35.22;7.00;;;16.60;70.60;;;;;;10270300;28;20019;-56
2023/04/23 12:09:31;;;;;;;17.17;6.00;;;16.50;70.30;;;;;;10290881;28;20029;-57
2023/04/23 12:14:32;;;;;;;20.73;5.40;;;16.50;70.00;;;;;;10287381;28;20018;-53
2023/04/23 12:19:33;;;;;;;24.48;5.10;;;16.60;69.90;;;;;;10288335;28;20031;-58
2023/04/23 12:24:50;;;;;;;18.98;3.70;;;16.50;69.60;;;;;;10286909;28;20397;-57
2023/04/23 12:30:00;;;;;;;15.45;4.43;;;16.50;69.40;;;;;;10288953;28;20035;-58
2023/04/23 12:35:01;;;;;;;16.05;4.65;;;16.50;68.90;;;;;;10289790;28;20015;-58
2023/04/23 12:40:01;;;;;;;17.80;3.75;;;16.50;68.70;;;;;;10288916;28;20023;-57
2023/04/23 12:45:07;;;;;;;12.98;3.95;;;16.50;68.80;;;;;;10286693;28;20026;-57
2023/04/23 12:50:09;;;;;;;24.73;4.57;;;16.50;69.00;;;;;;10268836;28;20122;-57
2023/04/23 12:55:10;;;;;;;10.60;2.78;;;16.50;68.20;;;;;;10285711;28;20030;-57
2023/04/23 13:00:11;;;;;;;8.98;3.08;;;16.50;68.30;;;;;;10267844;28;20543;-56
2023/04/23 13:05:12;;;;;;;6.75;2.35;;;16.50;68.60;;;;;;10268344;28;20034;-57
2023/04/23 13:10:12;;;;;;;8.88;2.95;;;16.50;68.20;;;;;;10285046;28;20045;-58
2023/04/23 13:15:13;;;;;;;8.90;2.72;;;16.50;68.20;;;;;;10267897;28;20399;-58
2023/04/23 13:20:14;;;;;;;11.38;2.97;;;16.50;68.00;;;;;;10270334;28;20534;-58
2023/04/23 13:25:14;;;;;;;11.90;3.63;;;16.40;68.10;;;;;;10288380;28;20019;-58
2023/04/23 13:30:15;;;;;;;7.72;2.55;;;16.50;68.00;;;;;;10286878;28;20042;-58
2023/04/23 13:35:16;;;;;;;8.68;2.72;;;16.50;68.00;;;;;;10287370;28;20014;-58
2023/04/23 13:40:17;;;;;;;13.68;3.17;;;16.50;67.60;;;;;;10286408;28;20035;-57
2023/04/23 13:45:17;;;;;;;23.10;4.28;;;16.60;67.80;;;;;;10287476;28;20453;-57
2023/04/23 13:50:18;;;;;;;13.70;2.97;;;16.60;69.10;;;;;;10258275;28;20050;-55
2023/04/23 13:55:19;;;;;;;12.80;2.80;;;16.70;69.10;;;;;;10284852;28;20106;-53
2023/04/23 14:00:20;;;;;;;8.93;3.33;;;16.80;70.00;;;;;;10258601;28;20110;-57
2023/04/23 14:05:21;;;;;;;8.55;2.88;;;16.70;69.30;;;;;;10285843;28;20023;-58
2023/04/23 14:10:22;;;;;;;16.98;3.42;;;16.70;69.20;;;;;;10284972;28;20022;-57
2023/04/23 14:15:22;;;;;;;15.00;3.75;;;16.60;68.60;;;;;;10269333;28;20714;-57
2023/04/23 14:20:23;;;;;;;11.55;3.28;;;16.50;68.70;;;;;;10269123;28;20038;-58
2023/04/23 14:25:38;;;;;;;10.85;2.15;;;16.50;68.70;;;;;;10291821;28;20366;-58
2023/04/23 14:30:39;;;;;;;12.48;3.08;;;16.40;68.70;;;;;;10285712;28;20054;-58
2023/04/23 14:35:40;;;;;;;9.43;2.65;;;16.40;69.10;;;;;;10284750;28;20117;-60
2023/04/23 14:40:41;;;;;;;8.68;2.83;;;16.50;69.30;;;;;;10285726;28;20026;-59
2023/04/23 14:45:42;;;;;;;8.25;3.47;;;16.50;69.50;;;;;;10284891;28;20230;-55
2023/04/23 14:50:42;;;;;;;9.70;3.63;;;16.60;69.00;;;;;;10283676;28;20050;-55
2023/04/23 14:55:43;;;;;;;8.55;3.20;;;16.70;69.30;;;;;;10284081;28;20015;-55
2023/04/23 15:00:44;;;;;;;6.28;2.33;;;16.70;68.70;;;;;;10282790;28;20097;-55
2023/04/23 15:05:45;;;;;;;31.15;5.32;;;16.50;68.90;;;;;;10282989;28;20110;-54
2023/04/23 15:10:46;;;;;;;15.18;3.38;;;16.50;69.10;;;;;;10282450;28;20558;-55
2023/04/23 15:15:55;;;;;;;18.48;3.53;;;16.50;69.40;;;;;;10282436;28;20029;-56
2023/04/23 15:20:56;;;;;;;45.40;6.90;;;16.60;69.60;;;;;;10283798;28;20019;-53
2023/04/23 15:25:57;;;;;;;46.30;6.63;;;16.60;70.00;;;;;;10284125;28;20054;-56
2023/04/23 15:30:57;;;;;;;37.75;7.90;;;16.70;70.10;;;;;;10247265;28;20548;-56
2023/04/23 15:35:58;;;;;;;34.83;5.43;;;16.70;70.40;;;;;;10266026;28;20934;-57
2023/04/23 15:40:59;;;;;;;38.55;6.25;;;16.70;70.10;;;;;;10283985;28;20109;-55
2023/04/23 15:46:00;;;;;;;23.17;4.93;;;16.70;70.20;;;;;;10283670;28;20050;-57
2023/04/23 15:51:01;;;;;;;30.50;8.85;;;16.80;71.50;;;;;;10264202;28;20130;-54
2023/04/23 15:56:01;;;;;;;34.25;14.63;;;16.70;73.10;;;;;;10283220;28;20466;-55
2023/04/23 16:01:02;;;;;;;32.45;10.07;;;16.90;74.70;;;;;;10282994;28;20027;-54
2023/04/23 16:06:03;;;;;;;21.70;7.93;;;17.00;73.60;;;;;;10281255;28;20043;-58
2023/04/23 16:11:05;;;;;;;23.20;9.82;;;17.00;74.20;;;;;;10280324;28;20097;-56
2023/04/23 16:16:06;;;;;;;12.85;5.65;;;17.20;74.80;;;;;;10283123;28;20451;-55
2023/04/23 16:21:06;;;;;;;15.75;5.47;;;17.20;74.00;;;;;;10283599;28;20106;-55
2023/04/23 16:26:07;;;;;;;20.40;5.95;;;17.20;73.50;;;;;;10282799;28;20102;-53
2023/04/23 16:31:08;;;;;;;19.52;6.35;;;17.20;73.30;;;;;;10265179;28;20378;-54
2023/04/23 16:36:11;;;;;;;25.60;6.95;;;17.00;72.60;;;;;;10282814;28;20114;-55
2023/04/23 16:41:14;;;;;;;28.65;8.52;;;17.10;73.10;;;;;;10282848;28;20019;-56
2023/04/23 16:46:15;;;;;;;23.80;6.25;;;17.00;73.30;;;;;;10265428;28;20055;-56
2023/04/23 16:51:15;;;;;;;19.90;6.72;;;17.00;73.30;;;;;;10288698;28;20098;-56
2023/04/23 16:56:16;;;;;;;46.67;8.07;;;16.90;73.50;;;;;;10289940;28;20019;-55
2023/04/23 17:01:17;;;;;;;57.33;10.18;;;16.80;73.50;;;;;;10289404;28;20098;-55
2023/04/23 17:06:24;;;;;;;41.92;8.00;;;16.80;74.10;;;;;;10272535;28;20093;-55
2023/04/23 17:11:29;;;;;;;34.38;9.48;;;16.70;74.50;;;;;;10285345;28;20067;-55
2023/04/23 17:16:30;;;;;;;31.73;6.32;;;16.70;74.60;;;;;;10288631;28;20019;-54
2023/04/23 17:21:31;;;;;;;24.63;7.25;;;16.70;75.00;;;;;;10276391;28;20633;-56
2023/04/23 17:26:32;;;;;;;30.45;7.45;;;16.70;74.30;;;;;;10282975;28;20106;-55
2023/04/23 17:31:32;;;;;;;22.88;6.22;;;16.70;73.90;;;;;;10287792;28;20041;-55
2023/04/23 17:36:33;;;;;;;22.58;6.90;;;16.70;74.30;;;;;;10284829;28;20019;-55
2023/04/23 17:41:34;;;;;;;21.25;7.35;;;16.70;74.60;;;;;;10269497;28;20054;-54
2023/04/23 17:46:35;;;;;;;23.77;6.78;;;16.60;74.30;;;;;;10286402;28;20043;-54
2023/04/23 17:51:35;;;;;;;13.50;4.65;;;16.60;74.50;;;;;;10287201;28;20746;-54
2023/04/23 17:56:36;;;;;;;23.35;5.55;;;16.60;74.30;;;;;;10269658;28;20130;-55
2023/04/23 18:01:37;;;;;;;14.57;5.05;;;16.50;74.10;;;;;;10286554;28;20101;-53
2023/04/23 18:06:37;;;;;;;18.35;4.93;;;16.50;74.30;;;;;;10285360;28;20617;-54
2023/04/23 18:11:38;;;;;;;12.75;4.25;;;16.60;74.50;;;;;;10268572;28;20043;-55
2023/04/23 18:16:39;;;;;;;10.45;3.83;;;16.70;74.40;;;;;;10285180;28;20101;-55
2023/04/23 18:21:40;;;;;;;14.73;3.95;;;16.70;73.60;;;;;;10279555;28;20113;-55
2023/04/23 18:26:40;;;;;;;12.60;4.15;;;16.60;74.00;;;;;;10283942;28;20031;-55
2023/04/23 18:31:41;;;;;;;14.55;4.22;;;16.50;74.60;;;;;;10284092;28;20634;-55
2023/04/23 18:36:43;;;;;;;10.93;4.38;;;16.50;73.90;;;;;;10285343;28;20057;-55
2023/04/23 18:41:44;;;;;;;13.95;3.67;;;16.50;73.80;;;;;;10283069;28;20370;-55
2023/04/23 18:46:45;;;;;;;11.63;4.32;;;16.50;73.90;;;;;;10272014;28;20054;-55
2023/04/23 18:51:50;;;;;;;9.43;4.13;;;16.50;73.90;;;;;;10284997;28;20034;-55
2023/04/23 18:56:54;;;;;;;15.18;5.63;;;16.50;74.00;;;;;;10267712;28;20426;-55
2023/04/23 19:01:55;;;;;;;9.38;3.63;;;16.50;73.90;;;;;;10284879;28;20514;-54
2023/04/23 19:06:57;;;;;;;9.43;3.97;;;16.40;73.90;;;;;;10276242;28;20113;-55
2023/04/23 19:11:58;;;;;;;14.40;4.13;;;16.40;73.90;;;;;;10283422;28;20102;-55
2023/04/23 19:16:59;;;;;;;7.00;2.75;;;16.40;74.00;;;;;;10281788;28;20038;-54
2023/04/23 19:22:02;;;;;;;10.88;4.03;;;16.40;73.90;;;;;;10280927;28;20046;-55
2023/04/23 19:27:04;;;;;;;6.28;3.58;;;16.40;74.20;;;;;;10280269;28;20587;-55
2023/04/23 19:32:05;;;;;;;7.40;3.90;;;16.40;73.80;;;;;;10280906;28;20034;-55
2023/04/23 19:37:06;;;;;;;9.13;3.30;;;16.40;73.90;;;;;;10279148;28;20478;-55
2023/04/23 19:42:06;;;;;;;6.32;2.90;;;16.40;74.00;;;;;;10279428;28;20229;-55
2023/04/23 19:47:07;;;;;;;8.10;3.70;;;16.30;73.80;;;;;;10282309;28;20076;-54
2023/04/23 19:52:20;;;;;;;9.13;3.20;;;16.30;73.60;;;;;;10286603;28;20047;-56
2023/04/23 19:57:21;;;;;;;6.15;2.95;;;16.30;73.60;;;;;;10249464;28;20046;-56
2023/04/23 20:02:22;;;;;;;5.00;2.50;;;16.30;73.50;;;;;;10282906;28;20646;-56
2023/04/23 20:07:23;;;;;;;6.53;2.75;;;16.30;73.50;;;;;;10265302;28;20048;-55
2023/04/23 20:12:23;;;;;;;5.20;2.50;;;16.20;73.40;;;;;;10282123;28;20441;-55
2023/04/23 20:17:25;;;;;;;5.72;3.22;;;16.20;73.40;;;;;;10265068;28;20034;-55
2023/04/23 20:22:29;;;;;;;4.22;2.38;;;16.20;73.30;;;;;;10265842;28;20509;-53
2023/04/23 20:27:30;;;;;;;4.60;3.33;;;16.20;73.30;;;;;;10273001;28;20045;-56
2023/04/23 20:32:31;;;;;;;4.35;2.35;;;16.20;73.20;;;;;;10290196;28;20031;-56
2023/04/23 20:37:33;;;;;;;4.70;2.33;;;16.20;73.20;;;;;;10273191;28;20054;-56
2023/04/23 20:42:37;;;;;;;4.07;2.50;;;16.10;73.10;;;;;;10290447;28;20022;-55
2023/04/23 20:47:38;;;;;;;6.05;2.70;;;16.10;73.10;;;;;;10272449;28;20502;-56
2023/04/23 20:52:39;;;;;;;3.63;2.33;;;16.10;73.10;;;;;;10290163;28;20035;-56
2023/04/23 20:57:40;;;;;;;5.03;2.22;;;16.10;72.90;;;;;;10272556;28;20030;-56
2023/04/23 21:02:41;;;;;;;4.25;2.10;;;16.10;72.80;;;;;;10289790;28;20022;-56
2023/04/23 21:07:43;;;;;;;4.07;1.85;;;16.10;72.70;;;;;;10289280;28;20048;-56
2023/04/23 21:12:44;;;;;;;4.45;1.90;;;16.10;73.20;;;;;;10288715;28;20070;-56
2023/04/23 21:17:45;;;;;;;3.10;1.50;;;16.10;73.40;;;;;;10289067;28;20579;-56
2023/04/23 21:22:46;;;;;;;3.50;2.00;;;16.10;73.00;;;;;;10288669;28;20090;-56
2023/04/23 21:27:47;;;;;;;3.28;1.40;;;16.10;73.00;;;;;;10288319;28;20106;-56
2023/04/23 21:32:50;;;;;;;3.67;1.20;;;16.10;72.70;;;;;;10271519;28;20046;-55
2023/04/23 21:37:51;;;;;;;1.95;1.02;;;16.10;72.30;;;;;;10270737;28;20011;-56
2023/04/23 21:42:52;;;;;;;2.88;1.42;;;16.00;72.20;;;;;;10288107;28;20133;-55
2023/04/23 21:47:55;;;;;;;2.13;1.30;;;16.00;72.20;;;;;;10287887;28;20070;-56
2023/04/23 21:52:59;;;;;;;2.33;1.17;;;16.00;72.20;;;;;;10287628;28;20037;-55
2023/04/23 21:57:59;;;;;;;1.45;1.20;;;16.00;72.10;;;;;;10270737;28;20029;-57
2023/04/23 22:03:01;;;;;;;1.73;0.88;;;16.00;71.90;;;;;;10287175;28;20019;-56
2023/04/23 22:08:01;;;;;;;3.13;0.95;;;16.00;71.80;;;;;;10287077;28;20034;-56
2023/04/23 22:13:02;;;;;;;1.75;0.73;;;16.00;71.60;;;;;;10269514;28;20047;-56
2023/04/23 22:18:03;;;;;;;1.50;0.80;;;15.90;71.50;;;;;;10286712;28;20105;-55
2023/04/23 22:23:04;;;;;;;2.45;1.30;;;15.90;71.60;;;;;;10269491;28;20057;-56
2023/04/23 22:28:06;;;;;;;2.05;0.77;;;16.00;71.70;;;;;;10286277;28;20543;-56
2023/04/23 22:33:06;;;;;;;1.83;0.75;;;15.90;71.80;;;;;;10285510;28;20023;-56
2023/04/23 22:38:07;;;;;;;1.85;1.13;;;15.90;71.80;;;;;;10268900;28;20046;-56
2023/04/23 22:43:08;;;;;;;1.80;0.80;;;15.90;71.70;;;;;;10285932;28;20011;-56
2023/04/23 22:48:09;;;;;;;1.25;0.70;;;15.90;71.80;;;;;;10284986;28;20695;-56
2023/04/23 22:53:09;;;;;;;1.45;0.60;;;15.90;71.80;;;;;;10268294;28;20034;-55
2023/04/23 22:58:11;;;;;;;1.27;0.80;;;15.90;71.60;;;;;;10285172;28;20097;-56
2023/04/23 23:03:12;;;;;;;1.98;0.73;;;15.90;71.70;;;;;;10285194;28;20109;-56
2023/04/23 23:08:12;;;;;;;1.25;0.52;;;15.90;71.70;;;;;;10284867;28;20668;-56
2023/04/23 23:13:13;;;;;;;1.13;0.60;;;15.90;71.60;;;;;;10267345;28;20038;-57
2023/04/23 23:18:14;;;;;;;0.98;0.50;;;15.90;71.60;;;;;;10284641;28;20029;-56
2023/04/23 23:23:14;;;;;;;1.98;0.93;;;15.90;71.60;;;;;;10266876;28;20034;-56
2023/04/23 23:28:15;;;;;;;1.52;0.82;;;15.90;71.70;;;;;;10284197;28;20022;-56
2023/04/23 23:33:16;;;;;;;1.75;1.17;;;15.80;71.60;;;;;;10283936;28;20031;-56
2023/04/23 23:38:16;;;;;;;1.50;0.93;;;15.80;71.60;;;;;;10284187;28;20026;-56
2023/04/23 23:43:17;;;;;;;1.77;0.70;;;15.80;71.60;;;;;;10283739;28;20055;-56
2023/04/23 23:48:18;;;;;;;1.10;0.70;;;15.80;71.60;;;;;;10266774;28;20082;-56
2023/04/23 23:53:18;;;;;;;1.80;0.68;;;15.80;71.60;;;;;;10266748;28;20081;-56
2023/04/23 23:58:20;;;;;;;1.33;0.65;;;15.80;71.60;;;;;;10282199;28;20098;-56
